Ballincollig, Ireland
Current Conditions -  °F | °C
As of 11:30 AM on Thursday 18 Dec 2014 (Local Time) from EICK Reporting Station
Light Rain Light Rain  
Wind Chill: 54°   Ceiling: 500
Heat Index: 54°   Visibility: 4mi
Dew Point: 54°   Wind: 22mph
Humidity: 100%   Direction: 240°WSW
Pressure: 29.74"   Gusts: NA
Location:  51.89°N, 8.59°W
Report Text: EICK 181130Z 24019KT 210V280 6000 -RADZ BKN005 BKN009 12/12 Q1007 TEMPO 4000
Loading
Personal Weather Stations






























Interactive Weather Map New forecast layout! Learn more

10-Day Weather Forecast

Advertisements
Track Severe Weather on mobile